sensor_id;sensor_type;location;lat;lon;timestamp;P1;durP1;ratioP1;P2;durP2;ratioP2
60002;SDS011;46322;52.018;8.702;2022-10-31T00:01:44;60.10;;;31.45;;
60002;SDS011;46322;52.018;8.702;2022-10-31T00:06:44;59.50;;;33.13;;
60002;SDS011;46322;52.018;8.702;2022-10-31T00:11:45;60.08;;;29.85;;
60002;SDS011;46322;52.018;8.702;2022-10-31T00:16:45;62.90;;;31.40;;
60002;SDS011;46322;52.018;8.702;2022-10-31T00:21:45;65.43;;;32.42;;
60002;SDS011;46322;52.018;8.702;2022-10-31T00:26:46;68.53;;;32.25;;
60002;SDS011;46322;52.018;8.702;2022-10-31T00:31:47;69.68;;;32.15;;
60002;SDS011;46322;52.018;8.702;2022-10-31T00:36:47;63.53;;;31.10;;
60002;SDS011;46322;52.018;8.702;2022-10-31T00:41:47;64.50;;;31.70;;
60002;SDS011;46322;52.018;8.702;2022-10-31T00:46:47;64.13;;;31.43;;
60002;SDS011;46322;52.018;8.702;2022-10-31T00:51:48;64.45;;;31.35;;
60002;SDS011;46322;52.018;8.702;2022-10-31T00:56:48;64.80;;;31.80;;
60002;SDS011;46322;52.018;8.702;2022-10-31T01:01:48;64.03;;;30.97;;
60002;SDS011;46322;52.018;8.702;2022-10-31T01:06:49;61.93;;;29.97;;
60002;SDS011;46322;52.018;8.702;2022-10-31T01:11:49;63.83;;;30.77;;
60002;SDS011;46322;52.018;8.702;2022-10-31T01:16:49;63.47;;;30.60;;
60002;SDS011;46322;52.018;8.702;2022-10-31T01:21:50;61.00;;;30.13;;
60002;SDS011;46322;52.018;8.702;2022-10-31T01:26:50;64.17;;;30.80;;
60002;SDS011;46322;52.018;8.702;2022-10-31T01:31:50;63.95;;;30.42;;
60002;SDS011;46322;52.018;8.702;2022-10-31T01:36:50;67.47;;;31.90;;
60002;SDS011;46322;52.018;8.702;2022-10-31T01:41:51;65.63;;;31.50;;
60002;SDS011;46322;52.018;8.702;2022-10-31T01:47:11;64.95;;;30.45;;
60002;SDS011;46322;52.018;8.702;2022-10-31T01:57:26;66.57;;;31.40;;
60002;SDS011;46322;52.018;8.702;2022-10-31T02:02:27;67.22;;;31.27;;
60002;SDS011;46322;52.018;8.702;2022-10-31T02:07:33;68.53;;;31.95;;
60002;SDS011;46322;52.018;8.702;2022-10-31T02:12:55;68.03;;;31.73;;
60002;SDS011;46322;52.018;8.702;2022-10-31T02:17:58;66.50;;;31.67;;
60002;SDS011;46322;52.018;8.702;2022-10-31T02:33:43;63.97;;;30.07;;
60002;SDS011;46322;52.018;8.702;2022-10-31T02:49:53;60.70;;;30.70;;
60002;SDS011;46322;52.018;8.702;2022-10-31T02:54:52;59.10;;;34.78;;
60002;SDS011;46322;52.018;8.702;2022-10-31T02:59:55;29.63;;;21.30;;
60002;SDS011;46322;52.018;8.702;2022-10-31T03:05:21;19.40;;;15.07;;
60002;SDS011;46322;52.018;8.702;2022-10-31T03:10:35;25.95;;;17.85;;
60002;SDS011;46322;52.018;8.702;2022-10-31T03:15:44;61.17;;;29.40;;
60002;SDS011;46322;52.018;8.702;2022-10-31T03:20:56;61.03;;;30.15;;
60002;SDS011;46322;52.018;8.702;2022-10-31T03:26:04;61.00;;;29.73;;
60002;SDS011;46322;52.018;8.702;2022-10-31T03:31:06;60.77;;;29.80;;
60002;SDS011;46322;52.018;8.702;2022-10-31T03:36:10;61.20;;;29.23;;
60002;SDS011;46322;52.018;8.702;2022-10-31T03:41:22;59.72;;;32.03;;
60002;SDS011;46322;52.018;8.702;2022-10-31T03:46:26;55.53;;;29.90;;
60002;SDS011;46322;52.018;8.702;2022-10-31T03:56:50;61.13;;;29.77;;
60002;SDS011;46322;52.018;8.702;2022-10-31T04:01:57;60.70;;;29.60;;
60002;SDS011;46322;52.018;8.702;2022-10-31T04:07:02;61.00;;;29.30;;
60002;SDS011;46322;52.018;8.702;2022-10-31T04:12:04;60.78;;;28.60;;
60002;SDS011;46322;52.018;8.702;2022-10-31T04:17:09;62.22;;;29.98;;
60002;SDS011;46322;52.018;8.702;2022-10-31T04:22:12;61.77;;;29.80;;
60002;SDS011;46322;52.018;8.702;2022-10-31T04:27:13;60.50;;;28.27;;
60002;SDS011;46322;52.018;8.702;2022-10-31T04:32:14;61.33;;;29.02;;
60002;SDS011;46322;52.018;8.702;2022-10-31T04:37:14;61.80;;;29.20;;
60002;SDS011;46322;52.018;8.702;2022-10-31T04:42:14;61.05;;;28.10;;
60002;SDS011;46322;52.018;8.702;2022-10-31T04:47:14;61.43;;;28.13;;
60002;SDS011;46322;52.018;8.702;2022-10-31T04:52:15;61.97;;;28.70;;
60002;SDS011;46322;52.018;8.702;2022-10-31T04:57:15;60.40;;;27.70;;
60002;SDS011;46322;52.018;8.702;2022-10-31T05:02:15;60.90;;;28.83;;
60002;SDS011;46322;52.018;8.702;2022-10-31T05:07:16;60.63;;;28.40;;
60002;SDS011;46322;52.018;8.702;2022-10-31T05:12:16;60.70;;;29.05;;
60002;SDS011;46322;52.018;8.702;2022-10-31T05:17:16;60.77;;;30.87;;
60002;SDS011;46322;52.018;8.702;2022-10-31T05:22:17;61.20;;;29.73;;
60002;SDS011;46322;52.018;8.702;2022-10-31T05:27:17;60.15;;;31.38;;
60002;SDS011;46322;52.018;8.702;2022-10-31T05:32:17;21.20;;;15.50;;
60002;SDS011;46322;52.018;8.702;2022-10-31T05:37:18;12.77;;;11.33;;
60002;SDS011;46322;52.018;8.702;2022-10-31T05:42:19;56.65;;;33.05;;
60002;SDS011;46322;52.018;8.702;2022-10-31T05:47:24;53.58;;;32.05;;
60002;SDS011;46322;52.018;8.702;2022-10-31T05:52:25;52.30;;;32.07;;
60002;SDS011;46322;52.018;8.702;2022-10-31T05:57:26;51.83;;;32.03;;
60002;SDS011;46322;52.018;8.702;2022-10-31T06:02:28;59.87;;;31.57;;
60002;SDS011;46322;52.018;8.702;2022-10-31T06:07:35;60.67;;;32.60;;
60002;SDS011;46322;52.018;8.702;2022-10-31T06:12:35;59.70;;;33.87;;
60002;SDS011;46322;52.018;8.702;2022-10-31T06:17:36;58.70;;;33.37;;
60002;SDS011;46322;52.018;8.702;2022-10-31T06:22:36;57.45;;;33.35;;
60002;SDS011;46322;52.018;8.702;2022-10-31T06:27:37;47.10;;;28.80;;
60002;SDS011;46322;52.018;8.702;2022-10-31T06:32:37;46.67;;;29.30;;
60002;SDS011;46322;52.018;8.702;2022-10-31T06:37:37;44.55;;;29.17;;
60002;SDS011;46322;52.018;8.702;2022-10-31T06:42:37;20.20;;;15.67;;
60002;SDS011;46322;52.018;8.702;2022-10-31T06:47:38;14.73;;;13.27;;
60002;SDS011;46322;52.018;8.702;2022-10-31T06:52:38;9.63;;;8.93;;
60002;SDS011;46322;52.018;8.702;2022-10-31T06:57:38;13.33;;;12.00;;
60002;SDS011;46322;52.018;8.702;2022-10-31T07:02:39;8.73;;;8.23;;
60002;SDS011;46322;52.018;8.702;2022-10-31T07:07:39;10.77;;;10.18;;
60002;SDS011;46322;52.018;8.702;2022-10-31T07:12:39;9.32;;;8.63;;
60002;SDS011;46322;52.018;8.702;2022-10-31T07:17:40;8.25;;;7.75;;
60002;SDS011;46322;52.018;8.702;2022-10-31T07:22:40;8.88;;;8.27;;
60002;SDS011;46322;52.018;8.702;2022-10-31T07:27:41;8.80;;;8.30;;
60002;SDS011;46322;52.018;8.702;2022-10-31T07:32:43;9.70;;;9.20;;
60002;SDS011;46322;52.018;8.702;2022-10-31T07:37:45;8.73;;;8.23;;
60002;SDS011;46322;52.018;8.702;2022-10-31T07:42:46;7.70;;;7.30;;
60002;SDS011;46322;52.018;8.702;2022-10-31T07:47:51;44.22;;;28.90;;
60002;SDS011;46322;52.018;8.702;2022-10-31T07:53:02;41.43;;;27.63;;
60002;SDS011;46322;52.018;8.702;2022-10-31T07:58:08;57.42;;;34.75;;
60002;SDS011;46322;52.018;8.702;2022-10-31T08:03:11;32.97;;;15.60;;
60002;SDS011;46322;52.018;8.702;2022-10-31T08:08:13;33.80;;;14.63;;
60002;SDS011;46322;52.018;8.702;2022-10-31T08:13:14;32.50;;;14.93;;
60002;SDS011;46322;52.018;8.702;2022-10-31T08:18:14;31.43;;;14.33;;
60002;SDS011;46322;52.018;8.702;2022-10-31T08:23:14;29.43;;;14.73;;
60002;SDS011;46322;52.018;8.702;2022-10-31T08:28:15;31.85;;;15.43;;
60002;SDS011;46322;52.018;8.702;2022-10-31T08:33:16;38.63;;;16.27;;
60002;SDS011;46322;52.018;8.702;2022-10-31T08:38:37;39.25;;;16.60;;
60002;SDS011;46322;52.018;8.702;2022-10-31T08:43:38;33.75;;;16.63;;
60002;SDS011;46322;52.018;8.702;2022-10-31T08:48:38;38.08;;;16.77;;
60002;SDS011;46322;52.018;8.702;2022-10-31T08:53:39;40.03;;;18.07;;
60002;SDS011;46322;52.018;8.702;2022-10-31T08:58:39;33.37;;;17.63;;
60002;SDS011;46322;52.018;8.702;2022-10-31T09:03:39;40.58;;;17.23;;
60002;SDS011;46322;52.018;8.702;2022-10-31T09:08:40;37.15;;;17.15;;
60002;SDS011;46322;52.018;8.702;2022-10-31T09:13:44;38.42;;;17.13;;
60002;SDS011;46322;52.018;8.702;2022-10-31T09:18:44;35.20;;;17.03;;
60002;SDS011;46322;52.018;8.702;2022-10-31T09:23:44;36.78;;;17.48;;
60002;SDS011;46322;52.018;8.702;2022-10-31T09:28:45;35.45;;;16.23;;
60002;SDS011;46322;52.018;8.702;2022-10-31T09:33:45;34.05;;;16.58;;
60002;SDS011;46322;52.018;8.702;2022-10-31T09:38:46;37.77;;;16.77;;
60002;SDS011;46322;52.018;8.702;2022-10-31T09:54:38;33.53;;;16.73;;
60002;SDS011;46322;52.018;8.702;2022-10-31T09:59:43;35.97;;;16.97;;
60002;SDS011;46322;52.018;8.702;2022-10-31T10:09:51;34.67;;;17.88;;
60002;SDS011;46322;52.018;8.702;2022-10-31T10:15:04;35.73;;;18.50;;
60002;SDS011;46322;52.018;8.702;2022-10-31T10:20:34;35.83;;;17.27;;
60002;SDS011;46322;52.018;8.702;2022-10-31T10:26:17;32.30;;;16.53;;
60002;SDS011;46322;52.018;8.702;2022-10-31T10:31:27;34.55;;;16.88;;
60002;SDS011;46322;52.018;8.702;2022-10-31T10:36:39;31.48;;;16.20;;
60002;SDS011;46322;52.018;8.702;2022-10-31T10:41:43;27.10;;;15.73;;
60002;SDS011;46322;52.018;8.702;2022-10-31T10:46:55;33.25;;;16.27;;
60002;SDS011;46322;52.018;8.702;2022-10-31T10:57:21;32.93;;;16.17;;
60002;SDS011;46322;52.018;8.702;2022-10-31T11:02:29;27.83;;;14.35;;
60002;SDS011;46322;52.018;8.702;2022-10-31T11:07:38;29.05;;;14.15;;
60002;SDS011;46322;52.018;8.702;2022-10-31T11:12:39;26.83;;;12.97;;
60002;SDS011;46322;52.018;8.702;2022-10-31T11:17:40;26.90;;;13.20;;
60002;SDS011;46322;52.018;8.702;2022-10-31T11:22:41;24.30;;;12.63;;
60002;SDS011;46322;52.018;8.702;2022-10-31T11:27:43;23.90;;;12.23;;
60002;SDS011;46322;52.018;8.702;2022-10-31T11:32:46;23.07;;;11.50;;
60002;SDS011;46322;52.018;8.702;2022-10-31T11:37:49;21.27;;;11.00;;
60002;SDS011;46322;52.018;8.702;2022-10-31T11:42:53;21.50;;;11.37;;
60002;SDS011;46322;52.018;8.702;2022-10-31T11:48:01;21.05;;;11.25;;
60002;SDS011;46322;52.018;8.702;2022-10-31T11:53:15;21.73;;;11.18;;
60002;SDS011;46322;52.018;8.702;2022-10-31T11:58:22;21.30;;;11.07;;
60002;SDS011;46322;52.018;8.702;2022-10-31T12:08:43;21.02;;;10.43;;
60002;SDS011;46322;52.018;8.702;2022-10-31T12:30:13;18.80;;;9.70;;
60002;SDS011;46322;52.018;8.702;2022-10-31T12:51:46;19.23;;;9.50;;
60002;SDS011;46322;52.018;8.702;2022-10-31T13:02:45;16.08;;;8.77;;
60002;SDS011;46322;52.018;8.702;2022-10-31T13:07:52;15.83;;;8.03;;
60002;SDS011;46322;52.018;8.702;2022-10-31T13:13:02;14.87;;;7.40;;
60002;SDS011;46322;52.018;8.702;2022-10-31T13:18:25;14.80;;;7.40;;
60002;SDS011;46322;52.018;8.702;2022-10-31T13:23:30;14.20;;;6.85;;
60002;SDS011;46322;52.018;8.702;2022-10-31T13:33:51;12.50;;;6.60;;
60002;SDS011;46322;52.018;8.702;2022-10-31T13:38:56;12.65;;;6.78;;
60002;SDS011;46322;52.018;8.702;2022-10-31T13:44:10;13.40;;;7.20;;
60002;SDS011;46322;52.018;8.702;2022-10-31T13:54:34;11.45;;;6.97;;
60002;SDS011;46322;52.018;8.702;2022-10-31T13:59:50;17.77;;;7.30;;
60002;SDS011;46322;52.018;8.702;2022-10-31T14:05:00;13.90;;;7.07;;
60002;SDS011;46322;52.018;8.702;2022-10-31T14:10:47;12.02;;;7.15;;
60002;SDS011;46322;52.018;8.702;2022-10-31T14:16:15;17.13;;;6.68;;
60002;SDS011;46322;52.018;8.702;2022-10-31T14:31:31;16.25;;;7.00;;
60002;SDS011;46322;52.018;8.702;2022-10-31T14:47:36;16.55;;;8.68;;
60002;SDS011;46322;52.018;8.702;2022-10-31T14:52:47;14.90;;;6.78;;
60002;SDS011;46322;52.018;8.702;2022-10-31T14:57:58;15.90;;;7.33;;
60002;SDS011;46322;52.018;8.702;2022-10-31T15:03:15;15.82;;;7.25;;
60002;SDS011;46322;52.018;8.702;2022-10-31T15:13:31;14.83;;;8.10;;
60002;SDS011;46322;52.018;8.702;2022-10-31T15:18:32;13.73;;;8.10;;
60002;SDS011;46322;52.018;8.702;2022-10-31T15:23:32;18.00;;;9.27;;
60002;SDS011;46322;52.018;8.702;2022-10-31T15:28:32;20.63;;;8.60;;
60002;SDS011;46322;52.018;8.702;2022-10-31T15:33:39;16.05;;;8.63;;
60002;SDS011;46322;52.018;8.702;2022-10-31T15:38:41;16.77;;;9.35;;
60002;SDS011;46322;52.018;8.702;2022-10-31T15:43:41;18.10;;;9.17;;
60002;SDS011;46322;52.018;8.702;2022-10-31T15:48:45;17.30;;;9.05;;
60002;SDS011;46322;52.018;8.702;2022-10-31T15:53:48;16.90;;;9.53;;
60002;SDS011;46322;52.018;8.702;2022-10-31T15:58:53;16.92;;;9.52;;
60002;SDS011;46322;52.018;8.702;2022-10-31T16:09:22;14.93;;;8.23;;
60002;SDS011;46322;52.018;8.702;2022-10-31T16:14:28;18.20;;;8.60;;
60002;SDS011;46322;52.018;8.702;2022-10-31T16:19:54;16.52;;;8.63;;
60002;SDS011;46322;52.018;8.702;2022-10-31T16:25:04;18.92;;;8.60;;
60002;SDS011;46322;52.018;8.702;2022-10-31T16:30:43;14.73;;;7.50;;
60002;SDS011;46322;52.018;8.702;2022-10-31T16:35:45;18.67;;;8.50;;
60002;SDS011;46322;52.018;8.702;2022-10-31T16:40:45;21.60;;;9.73;;
60002;SDS011;46322;52.018;8.702;2022-10-31T16:45:47;20.27;;;9.57;;
60002;SDS011;46322;52.018;8.702;2022-10-31T16:51:02;19.70;;;9.50;;
60002;SDS011;46322;52.018;8.702;2022-10-31T16:56:03;20.30;;;9.70;;
60002;SDS011;46322;52.018;8.702;2022-10-31T17:01:06;17.90;;;8.40;;
60002;SDS011;46322;52.018;8.702;2022-10-31T17:06:13;23.73;;;9.97;;
60002;SDS011;46322;52.018;8.702;2022-10-31T17:11:16;22.30;;;10.27;;
60002;SDS011;46322;52.018;8.702;2022-10-31T17:16:18;20.83;;;10.38;;
60002;SDS011;46322;52.018;8.702;2022-10-31T17:21:20;21.43;;;11.03;;
60002;SDS011;46322;52.018;8.702;2022-10-31T17:26:21;21.52;;;12.32;;
60002;SDS011;46322;52.018;8.702;2022-10-31T17:31:23;22.17;;;11.57;;
60002;SDS011;46322;52.018;8.702;2022-10-31T17:36:28;22.83;;;11.27;;
60002;SDS011;46322;52.018;8.702;2022-10-31T17:41:28;22.23;;;11.75;;
60002;SDS011;46322;52.018;8.702;2022-10-31T17:46:28;27.65;;;15.57;;
60002;SDS011;46322;52.018;8.702;2022-10-31T17:51:29;24.93;;;14.20;;
60002;SDS011;46322;52.018;8.702;2022-10-31T17:56:29;26.27;;;12.10;;
60002;SDS011;46322;52.018;8.702;2022-10-31T18:01:30;26.73;;;13.20;;
60002;SDS011;46322;52.018;8.702;2022-10-31T18:06:30;28.88;;;12.98;;
60002;SDS011;46322;52.018;8.702;2022-10-31T18:11:30;29.67;;;13.57;;
60002;SDS011;46322;52.018;8.702;2022-10-31T18:16:31;30.07;;;13.53;;
60002;SDS011;46322;52.018;8.702;2022-10-31T18:21:32;29.40;;;13.90;;
60002;SDS011;46322;52.018;8.702;2022-10-31T18:26:32;32.17;;;14.63;;
60002;SDS011;46322;52.018;8.702;2022-10-31T18:31:32;33.33;;;14.37;;
60002;SDS011;46322;52.018;8.702;2022-10-31T18:36:39;30.67;;;14.38;;
60002;SDS011;46322;52.018;8.702;2022-10-31T18:41:39;30.77;;;15.40;;
60002;SDS011;46322;52.018;8.702;2022-10-31T18:46:39;34.13;;;15.60;;
60002;SDS011;46322;52.018;8.702;2022-10-31T18:51:40;34.13;;;15.40;;
60002;SDS011;46322;52.018;8.702;2022-10-31T18:56:40;32.28;;;15.38;;
60002;SDS011;46322;52.018;8.702;2022-10-31T19:01:40;33.77;;;14.07;;
60002;SDS011;46322;52.018;8.702;2022-10-31T19:06:42;31.07;;;14.23;;
60002;SDS011;46322;52.018;8.702;2022-10-31T19:11:43;31.17;;;14.20;;
60002;SDS011;46322;52.018;8.702;2022-10-31T19:16:43;28.87;;;14.10;;
60002;SDS011;46322;52.018;8.702;2022-10-31T19:21:44;30.13;;;14.50;;
60002;SDS011;46322;52.018;8.702;2022-10-31T19:26:44;31.17;;;14.23;;
60002;SDS011;46322;52.018;8.702;2022-10-31T19:31:44;28.80;;;13.00;;
60002;SDS011;46322;52.018;8.702;2022-10-31T19:36:47;28.80;;;13.25;;
60002;SDS011;46322;52.018;8.702;2022-10-31T19:41:48;29.13;;;13.90;;
60002;SDS011;46322;52.018;8.702;2022-10-31T19:46:48;24.45;;;12.52;;
60002;SDS011;46322;52.018;8.702;2022-10-31T19:51:48;27.07;;;12.33;;
60002;SDS011;46322;52.018;8.702;2022-10-31T19:56:50;26.73;;;11.87;;
60002;SDS011;46322;52.018;8.702;2022-10-31T20:01:50;24.50;;;12.15;;
60002;SDS011;46322;52.018;8.702;2022-10-31T20:06:51;25.00;;;11.38;;
60002;SDS011;46322;52.018;8.702;2022-10-31T20:11:51;25.38;;;11.18;;
60002;SDS011;46322;52.018;8.702;2022-10-31T20:16:51;20.13;;;10.90;;
60002;SDS011;46322;52.018;8.702;2022-10-31T20:21:52;25.97;;;10.70;;
60002;SDS011;46322;52.018;8.702;2022-10-31T20:26:52;25.42;;;11.68;;
60002;SDS011;46322;52.018;8.702;2022-10-31T20:31:52;21.33;;;11.40;;
60002;SDS011;46322;52.018;8.702;2022-10-31T20:36:53;24.10;;;11.20;;
60002;SDS011;46322;52.018;8.702;2022-10-31T20:41:53;22.60;;;11.40;;
60002;SDS011;46322;52.018;8.702;2022-10-31T20:46:53;23.97;;;11.63;;
60002;SDS011;46322;52.018;8.702;2022-10-31T20:51:54;22.20;;;11.53;;
60002;SDS011;46322;52.018;8.702;2022-10-31T20:56:54;25.27;;;11.33;;
60002;SDS011;46322;52.018;8.702;2022-10-31T21:01:55;20.37;;;11.43;;
60002;SDS011;46322;52.018;8.702;2022-10-31T21:06:55;25.50;;;11.48;;
60002;SDS011;46322;52.018;8.702;2022-10-31T21:11:55;20.38;;;11.43;;
60002;SDS011;46322;52.018;8.702;2022-10-31T21:16:55;22.50;;;11.35;;
60002;SDS011;46322;52.018;8.702;2022-10-31T21:21:56;21.65;;;9.90;;
60002;SDS011;46322;52.018;8.702;2022-10-31T21:26:56;23.02;;;10.55;;
60002;SDS011;46322;52.018;8.702;2022-10-31T21:31:56;22.83;;;10.87;;
60002;SDS011;46322;52.018;8.702;2022-10-31T21:36:57;19.53;;;10.00;;
60002;SDS011;46322;52.018;8.702;2022-10-31T21:41:57;20.52;;;10.02;;
60002;SDS011;46322;52.018;8.702;2022-10-31T21:46:59;23.27;;;9.90;;
60002;SDS011;46322;52.018;8.702;2022-10-31T21:51:59;24.10;;;11.40;;
60002;SDS011;46322;52.018;8.702;2022-10-31T21:57:00;19.00;;;10.23;;
60002;SDS011;46322;52.018;8.702;2022-10-31T22:02:00;19.40;;;10.50;;
60002;SDS011;46322;52.018;8.702;2022-10-31T22:07:01;18.75;;;10.60;;
60002;SDS011;46322;52.018;8.702;2022-10-31T22:12:01;21.00;;;10.52;;
60002;SDS011;46322;52.018;8.702;2022-10-31T22:17:01;23.97;;;10.73;;
60002;SDS011;46322;52.018;8.702;2022-10-31T22:22:01;20.05;;;10.55;;
60002;SDS011;46322;52.018;8.702;2022-10-31T22:27:02;21.60;;;10.70;;
60002;SDS011;46322;52.018;8.702;2022-10-31T22:32:02;25.10;;;11.57;;
60002;SDS011;46322;52.018;8.702;2022-10-31T22:37:03;18.57;;;10.47;;
60002;SDS011;46322;52.018;8.702;2022-10-31T22:42:07;23.63;;;11.60;;
60002;SDS011;46322;52.018;8.702;2022-10-31T22:47:07;24.23;;;11.60;;
60002;SDS011;46322;52.018;8.702;2022-10-31T22:52:08;22.25;;;11.55;;
60002;SDS011;46322;52.018;8.702;2022-10-31T22:57:08;22.85;;;13.15;;
60002;SDS011;46322;52.018;8.702;2022-10-31T23:02:09;26.60;;;13.43;;
60002;SDS011;46322;52.018;8.702;2022-10-31T23:07:10;23.50;;;12.97;;
60002;SDS011;46322;52.018;8.702;2022-10-31T23:12:10;23.23;;;12.75;;
60002;SDS011;46322;52.018;8.702;2022-10-31T23:17:10;23.67;;;12.90;;
60002;SDS011;46322;52.018;8.702;2022-10-31T23:22:11;21.95;;;12.75;;
60002;SDS011;46322;52.018;8.702;2022-10-31T23:27:15;28.00;;;12.97;;
60002;SDS011;46322;52.018;8.702;2022-10-31T23:32:33;25.88;;;13.20;;
60002;SDS011;46322;52.018;8.702;2022-10-31T23:37:35;25.73;;;12.40;;
60002;SDS011;46322;52.018;8.702;2022-10-31T23:42:37;22.03;;;12.50;;
60002;SDS011;46322;52.018;8.702;2022-10-31T23:47:37;27.20;;;11.87;;
60002;SDS011;46322;52.018;8.702;2022-10-31T23:52:37;24.83;;;11.90;;
60002;SDS011;46322;52.018;8.702;2022-10-31T23:57:38;21.83;;;11.30;;
